White Earth, North Dakota
Current Conditions -  °F | °C
As of 4:35 AM on Sunday 26 Oct 2014 (Local Time) from KD60 Reporting Station
Clear Clear  
Wind Chill: 40°   Ceiling: Unl
Heat Index: 46°   Visibility: 10mi
Dew Point: 32°   Wind: 14mph
Humidity: 57%   Direction: 130°SE
Pressure: 29.64"   Gusts: 21mph
Location:  48.38°N, 102.77°W
Report Text: KD60 260935Z AUTO 13012G18KT 10SM CLR 08/00 A2964 RMK AO2
Loading
Personal Weather Stations






























Interactive Weather Map New forecast layout! Learn more

10-Day Weather Forecast

Advertisements
Track Severe Weather on mobile